Data for 10/12/2005

Time Sea-Level Adjusted Pressure Absolute Pressure Temperature Relative Humidity Dew Point   
(mb) (inHg) (mb) (inHg) (C) (F) (%) (C) (F)
00:05 1023 30.21 852 25.16 6.9 44.5 89 5.3 41.5
00:10 1023 30.21 852 25.16 6.7 44 89 5 40.9
00:15 1023 30.21 852 25.16 6.7 44 90 5.2 41.3
00:20 1023 30.21 852 25.16 6.7 44 91 5.2 41.4
00:25 1023 30.21 852 25.16 6.7 44 91 5.2 41.4
00:30 1023 30.21 852 25.16 6.7 44.1 90 5.2 41.4
00:35 1023 30.21 852 25.16 6.7 44.1 90 5.2 41.4
00:40 1023 30.21 852 25.16 6.7 44.1 90 5.2 41.4
00:45 1023 30.21 852 25.16 6.7 44 90 5.2 41.3
00:50 1023 30.21 852 25.16 6.5 43.6 91 5.2 41.3
00:55 1023 30.21 852 25.16 6.3 43.3 91 5 41
01:00 1023 30.21 852 25.16 6.1 43 92 4.9 40.9
01:05 1023 30.21 852 25.16 6 42.9 93 5 40.9
01:10 1023 30.21 852 25.16 6 42.9 93 5 41
01:15 1023 30.21 852 25.16 6.1 42.9 93 5 41
01:20 1023 30.21 852 25.16 6.1 43 92 4.9 40.8
01:25 1023 30.21 852 25.16 6 42.8 92 4.8 40.6
01:30 1023 30.21 852 25.16 6 42.8 91 4.7 40.5
01:35 1023 30.21 852 25.16 6 42.7 92 4.8 40.6
01:40 1023 30.21 852 25.16 6 42.7 92 4.7 40.5
01:45 1023 30.21 852 25.16 5.9 42.7 92 4.7 40.5
01:50 1023 30.21 852 25.16 5.9 42.6 93 4.8 40.7
01:55 1023 30.21 852 25.16 5.7 42.3 95 4.9 40.9
02:00 1023 30.21 852 25.16 5.6 42.1 95 4.8 40.7
02:05 1023 30.21 852 25.16 5.6 42 95 4.8 40.7
02:10 1023 30.21 852 25.16 5.6 42.1 94 4.8 40.7
02:15 1023 30.21 852 25.16 5.6 42.2 94 4.8 40.6
02:20 1023 30.21 852 25.16 5.7 42.3 93 4.7 40.5
02:25 1023 30.21 852 25.16 5.8 42.4 92 4.5 40.1
02:30 1023 30.21 852 25.16 5.8 42.4 92 4.6 40.4
02:35 1023 30.21 852 25.16 5.7 42.3 92 4.6 40.2
02:40 1023 30.21 852 25.16 5.6 42.1 93 4.5 40.2
02:45 1023 30.21 852 25.16 5.5 41.9 93 4.4 39.9
02:50 1023 30.21 852 25.16 5.5 41.9 91 4.1 39.4
02:55 1023 30.21 852 25.16 5.4 41.8 90 4 39.2
03:00 1023 30.21 852 25.16 5.4 41.7 90 4 39.1
03:05 1023 30.21 852 25.16 5.4 41.8 90 3.9 39
03:10 1023 30.21 852 25.16 5.5 41.9 89 3.8 38.9
03:15 1023 30.21 852 25.16 5.6 42.1 87 3.6 38.5
03:20 1023 30.21 852 25.16 5.5 41.9 87 3.6 38.5
03:25 1023 30.21 852 25.16 5.5 41.9 87 3.5 38.3
03:30 1023 30.21 852 25.16 5.4 41.8 86 3.3 38
03:35 1023 30.21 852 25.16 5.4 41.8 87 3.5 38.3
03:40 1023 30.21 852 25.16 5.4 41.8 87 3.4 38.2
03:45 1023 30.21 852 25.16 5.5 42 88 3.7 38.6
03:50 1023 30.21 852 25.16 5.5 41.8 88 3.7 38.7
03:55 1023 30.21 852 25.16 5.3 41.5 89 3.6 38.5
04:00 1023 30.21 852 25.16 5.4 41.8 86 3.3 38
04:05 1023 30.21 852 25.16 5.6 42.1 86 3.5 38.4
04:10 1023 30.21 852 25.16 5.5 42 87 3.6 38.4
04:15 1023 30.21 852 25.16 5.2 41.3 90 3.6 38.5
04:20 1023 30.21 852 25.16 5 40.9 91 3.6 38.5
04:25 1023 30.21 852 25.16 4.8 40.6 92 3.6 38.5
04:30 1023 30.21 852 25.16 4.7 40.5 93 3.7 38.7
04:35 1023 30.21 852 25.16 4.5 40.2 95 3.8 38.8
04:40 1023 30.21 852 25.16 4.6 40.2 93 3.6 38.4
04:45 1023 30.21 852 25.16 4.6 40.3 94 3.7 38.6
04:50 1023 30.21 852 25.16 4.7 40.5 93 3.7 38.6
04:55 1023 30.21 852 25.16 4.8 40.7 92 3.6 38.5
05:00 1023 30.21 852 25.16 4.8 40.7 92 3.7 38.6
05:05 1023 30.21 852 25.16 4.8 40.6 92 3.6 38.6
05:10 1023 30.21 852 25.16 4.7 40.4 93 3.7 38.6
05:15 1023 30.21 852 25.16 4.5 40.2 94 3.6 38.5
05:20 1023 30.21 852 25.16 4.5 40.1 94 3.7 38.6
05:25 1023 30.21 852 25.16 4.5 40.2 95 3.8 38.8
05:30 1023 30.21 852 25.16 4.6 40.3 94 3.8 38.8
05:35 1023 30.21 852 25.16 4.6 40.3 94 3.8 38.8
05:40 1023 30.21 852 25.16 4.5 40.1 94 3.7 38.6
05:45 1023 30.21 852 25.16 4.4 40 95 3.7 38.7
05:50 1023 30.21 852 25.16 4.3 39.8 96 3.7 38.6
05:55 1023 30.21 852 25.16 4.1 39.5 96 3.5 38.4
06:00 1023 30.21 852 25.16 4.3 39.8 94 3.4 38.1
06:05 1023 30.21 852 25.16 4.1 39.3 95 3.3 38
06:10 1023 30.21 852 25.16 3.7 38.6 96 3.1 37.6
06:15 1023 30.21 852 25.16 3.6 38.5 95 2.9 37.3
06:20 1023 30.21 852 25.16 3.8 38.9 94 2.9 37.2
06:25 1023 30.21 852 25.16 3.9 39.1 94 3 37.4
06:30 1023 30.21 852 25.16 4.3 39.7 91 3 37.4
06:35 1023 30.21 852 25.16 4.5 40.1 91 3.1 37.5
06:40 1023 30.21 852 25.16 4.2 39.6 92 3 37.5
06:45 1023 30.21 852 25.16 3.9 39.1 92 2.7 36.8
06:50 1023 30.21 852 25.16 4.2 39.6 90 2.8 37.1
06:55 1023 30.21 852 25.16 4 39.2 92 2.9 37.2
07:00 1023 30.21 852 25.16 3.9 38.9 91 2.6 36.6
07:05 1023 30.21 852 25.16 3.5 38.3 93 2.5 36.4
07:10 1023 30.21 852 25.16 3 37.4 94 2.1 35.8
07:15 1023 30.21 852 25.16 3 37.3 94 2.1 35.9
07:20 1023 30.21 852 25.16 3.2 37.8 93 2.2 36
07:25 1023 30.21 853 25.19 3.4 38.2 92 2.2 36
07:30 1023 30.21 853 25.19 3.6 38.4 91 2.3 36.2
07:35 1024 30.24 853 25.19 3.5 38.3 92 2.3 36.1
07:40 1024 30.24 853 25.19 3.5 38.2 92 2.3 36.1
07:45 1024 30.24 853 25.19 3.3 38 92 2.2 35.9
07:50 1024 30.24 853 25.19 3.3 37.9 92 2.1 35.7
07:55 1024 30.24 853 25.19 3.3 37.9 92 2.1 35.9
08:00 1024 30.24 853 25.19 3.4 38 91 2.1 35.7
08:05 1024 30.24 853 25.19 3.6 38.5 90 2.1 35.7
08:10 1024 30.24 853 25.19 3.4 38.1 92 2.1 35.8
08:15 1024 30.24 853 25.19 3 37.5 93 2 35.6
08:20 1024 30.24 853 25.19 3 37.3 94 2.1 35.8
08:25 1024 30.24 853 25.19 3.1 37.6 94 2.3 36.1
08:30 1024 30.24 853 25.19 3.7 38.7 91 2.4 36.3
08:35 1024 30.24 853 25.19 4.1 39.3 91 2.8 37
08:40 1024 30.24 853 25.19 4.1 39.5 91 2.9 37.2
08:45 1024 30.24 853 25.19 4.4 39.9 90 3 37.3
08:50 1024 30.24 853 25.19 4.4 40 91 3.1 37.6
08:55 1024 30.24 853 25.19 4.4 40 90 3 37.3
09:00 1024 30.24 853 25.19 4.7 40.4 90 3.1 37.6
09:05 1024 30.24 853 25.19 5.1 41.1 89 3.4 38
09:10 1024 30.24 853 25.19 5.6 42.2 85 3.4 38
09:15 1024 30.24 853 25.19 6.2 43.2 83 3.5 38.3
09:20 1024 30.24 853 25.19 7 44.5 80 3.7 38.6
09:25 1024 30.24 853 25.19 7.4 45.4 79 4 39.2
09:30 1024 30.24 853 25.19 7.2 44.9 84 4.6 40.3
09:35 1024 30.24 853 25.19 8 46.5 82 5.2 41.3
09:40 1024 30.24 853 25.19 8.6 47.5 76 4.6 40.3
09:45 1024 30.24 853 25.19 8.7 47.7 77 4.9 40.8
09:50 1024 30.24 853 25.19 9.3 48.7 76 5.3 41.6
09:55 1024 30.24 853 25.19 9.4 48.8 76 5.4 41.7
10:00 1024 30.24 853 25.19 8.8 47.8 76 4.9 40.8
10:05 1024 30.24 853 25.19 8.8 47.8 75 4.5 40.2
10:10 1024 30.24 853 25.19 8.9 48.1 74 4.5 40.1
10:15 1024 30.24 853 25.19 9.4 48.9 68 3.8 38.8
10:20 1024 30.24 853 25.19 9.9 49.8 66 3.9 39.1
10:25 1024 30.24 853 25.19 10.4 50.6 68 4.7 40.4
10:30 1024 30.24 853 25.19 10.1 50.1 67 4.3 39.7
10:35 1024 30.24 853 25.19 10 50.1 65 3.8 38.9
10:40 1024 30.24 853 25.19 10.5 51 64 4.1 39.4
10:45 1024 30.24 853 25.19 11.3 52.4 63 4.5 40.2
10:50 1024 30.24 853 25.19 11.6 53 62 4.6 40.3
10:55 1024 30.24 853 25.19 11.8 53.3 61 4.7 40.4
11:00 1024 30.24 853 25.19 12.1 53.7 58 4.1 39.4
11:05 1024 30.24 853 25.19 12.1 53.8 58 4.1 39.3
11:10 1024 30.24 853 25.19 12.2 54 56 3.9 39
11:15 1024 30.24 853 25.19 12 53.6 59 4.4 39.9
11:20 1024 30.24 853 25.19 12 53.5 60 4.6 40.2
11:25 1024 30.24 853 25.19 12.6 54.6 55 3.9 38.9
11:30 1024 30.24 853 25.19 12.8 55 57 4.5 40.2
11:35 1024 30.24 853 25.19 12.8 55.1 55 4.2 39.5
11:40 1024 30.24 853 25.19 12.7 54.8 55 4 39.2
11:45 1024 30.24 853 25.19 12.6 54.7 57 4.4 39.9
11:50 1024 30.24 853 25.19 12.6 54.7 56 4.2 39.5
11:55 1024 30.24 853 25.19 13 55.4 56 4.6 40.3
12:00 1024 30.24 853 25.19 12.9 55.1 54 3.9 39
12:05 1024 30.24 853 25.19 13.3 56 53 4.1 39.4
12:10 1024 30.24 853 25.19 13.5 56.3 53 4.1 39.4
12:15 1024 30.24 853 25.19 12.8 55.1 53 3.5 38.3
12:20 1024 30.24 853 25.19 12.4 54.3 54 3.4 38
12:25 1024 30.24 853 25.19 12.5 54.4 54 3.5 38.2
12:30 1024 30.24 853 25.19 12.1 53.9 56 3.7 38.6
12:35 1024 30.24 853 25.19 13 55.4 52 3.4 38.1
12:40 1024 30.24 853 25.19 13 55.3 54 3.8 38.9
12:45 1024 30.24 853 25.19 13 55.3 53 3.6 38.4
12:50 1023 30.21 853 25.19 13.1 55.6 51 3.2 37.8
12:55 1023 30.21 853 25.19 14 57.2 48 3.4 38
13:00 1023 30.21 853 25.19 14.5 58.1 48 3.7 38.6
13:05 1023 30.21 852 25.16 14.5 58 48 3.6 38.6
13:10 1023 30.21 852 25.16 14.6 58.4 47 3.6 38.4
13:15 1023 30.21 852 25.16 14.6 58.2 48 3.7 38.7
13:20 1023 30.21 852 25.16 14.3 57.8 47 3.1 37.7
13:25 1023 30.21 852 25.16 14.1 57.4 48 3.3 38
13:30 1023 30.21 852 25.16 14.3 57.8 47 3.2 37.7
13:35 1023 30.21 852 25.16 14.5 58.1 46 3 37.3
13:40 1023 30.21 852 25.16 15 59 46 3.5 38.3
13:45 1023 30.21 852 25.16 15.1 59.1 44 3.1 37.6
13:50 1023 30.21 852 25.16 14.3 57.7 50 4 39.2
13:55 1023 30.21 852 25.16 13.5 56.4 50 3.4 38.1
14:00 1023 30.21 852 25.16 14.6 58.3 47 3.5 38.4
14:05 1023 30.21 852 25.16 14.8 58.7 46 3.5 38.3
14:10 1023 30.21 852 25.16 14.9 58.9 46 3.6 38.5
14:15 1023 30.21 852 25.16 15.1 59.2 46 3.7 38.7
14:20 1023 30.21 852 25.16 15.4 59.7 44 3.4 38.2
14:25 1023 30.21 852 25.16 14.7 58.5 49 4.3 39.7
14:30 1023 30.21 852 25.16 14.8 58.6 46 3.4 38.1
14:35 1023 30.21 852 25.16 14.8 58.6 48 4.1 39.3
14:40 1023 30.21 852 25.16 14.8 58.6 46 3.2 37.8
14:45 1023 30.21 852 25.16 14 57.2 50 3.8 38.9
14:50 1023 30.21 852 25.16 13.9 56.9 48 3.2 37.7
14:55 1023 30.21 852 25.16 14.3 57.8 49 3.7 38.7
15:00 1023 30.21 852 25.16 13.9 56.9 47 2.9 37.1
15:05 1023 30.21 852 25.16 14.8 58.7 44 2.7 36.8
15:10 1022 30.18 852 25.16 14.9 58.9 46 3.5 38.3
15:15 1022 30.18 852 25.16 14.8 58.6 44 2.7 36.8
15:20 1022 30.18 852 25.16 14 57.2 46 2.7 36.8
15:25 1022 30.18 852 25.16 14.3 57.8 46 2.8 37.1
15:30 1022 30.18 851 25.13 14.6 58.3 45 3 37.3
15:35 1022 30.18 851 25.13 15.5 59.8 42 2.7 36.8
15:40 1022 30.18 851 25.13 15.4 59.8 43 3 37.5
15:45 1022 30.18 851 25.13 14.8 58.6 44 2.9 37.2
15:50 1022 30.18 851 25.13 15.3 59.5 44 3.1 37.7
15:55 1022 30.18 851 25.13 15.2 59.4 44 3.3 37.9
16:00 1022 30.18 851 25.13 14.9 58.8 46 3.5 38.4
16:05 1022 30.18 851 25.13 14.7 58.5 46 3.2 37.8
16:10 1022 30.18 851 25.13 13.7 56.7 50 3.6 38.5
16:15 1022 30.18 851 25.13 13.6 56.4 49 3.1 37.6
16:20 1022 30.18 851 25.13 13.5 56.2 48 2.8 37.1
16:25 1022 30.18 851 25.13 13.4 56.1 49 2.8 37.1
16:30 1022 30.18 851 25.13 13.4 56 49 3 37.3
16:35 1022 30.18 851 25.13 13.8 56.8 47 2.7 36.8
16:40 1022 30.18 851 25.13 15 58.9 44 2.8 37
16:45 1022 30.18 851 25.13 15.3 59.6 44 3.3 38
16:50 1022 30.18 851 25.13 14.7 58.4 46 3.1 37.6
16:55 1022 30.18 851 25.13 14.2 57.6 47 3.3 37.9
17:00 1022 30.18 851 25.13 14.7 58.5 45 2.9 37.1
17:05 1022 30.18 851 25.13 15.4 59.7 42 2.7 36.8
17:10 1022 30.18 851 25.13 15.6 60 43 3.1 37.5
17:15 1022 30.18 851 25.13 14.2 57.6 47 3.1 37.5
17:20 1022 30.18 851 25.13 14 57.3 46 2.7 36.8
17:25 1022 30.18 851 25.13 13.4 56.2 48 2.8 37
17:30 1022 30.18 851 25.13 13 55.3 50 2.9 37.2
17:35 1021 30.15 851 25.13 12.8 55 50 2.6 36.7
17:40 1021 30.15 851 25.13 13 55.3 49 2.4 36.4
17:45 1021 30.15 851 25.13 13.2 55.7 49 2.7 36.9
17:50 1021 30.15 851 25.13 13.6 56.5 47 2.6 36.7
17:55 1022 30.18 851 25.13 13.1 55.7 49 2.8 37.1
18:00 1022 30.18 851 25.13 12.7 54.8 51 2.8 37
18:05 1021 30.15 851 25.13 12.5 54.5 52 2.9 37.2
18:10 1021 30.15 851 25.13 12.4 54.4 52 2.8 37.1
18:15 1021 30.15 851 25.13 12.4 54.4 51 2.6 36.7
18:20 1021 30.15 851 25.13 12.4 54.2 51 2.6 36.7
18:25 1021 30.15 851 25.13 12.2 53.9 50 2.3 36.1
18:30 1022 30.18 851 25.13 12.2 53.9 52 2.6 36.6
18:35 1022 30.18 851 25.13 12.2 53.9 52 2.7 36.9
18:40 1021 30.15 851 25.13 12.2 53.9 54 3.1 37.5
18:45 1021 30.15 851 25.13 12.1 53.9 56 3.8 38.8
18:50 1021 30.15 851 25.13 11.4 52.4 63 4.7 40.4
18:55 1022 30.18 851 25.13 10.4 50.7 69 5 41.1
19:00 1021 30.15 851 25.13 9.8 49.6 72 5.1 41.2
19:05 1021 30.15 851 25.13 9.6 49.3 74 5.2 41.3
19:10 1021 30.15 851 25.13 9.2 48.6 75 5.1 41.2
19:15 1021 30.15 851 25.13 9.1 48.3 75 4.9 40.8
19:20 1021 30.15 851 25.13 8.8 47.8 75 4.7 40.5
19:25 1022 30.18 851 25.13 8.5 47.4 76 4.5 40.2
19:30 1022 30.18 851 25.13 8.6 47.5 74 4.2 39.5
19:35 1022 30.18 851 25.13 8.4 47.1 76 4.4 40
19:40 1022 30.18 851 25.13 8 46.4 78 4.5 40
19:45 1022 30.18 851 25.13 7.5 45.5 80 4.2 39.5
19:50 1022 30.18 851 25.13 7.4 45.3 80 4.1 39.4
19:55 1022 30.18 851 25.13 7.3 45.1 80 4 39.2
20:00 1022 30.18 851 25.13 7.1 44.8 79 3.8 38.8
20:05 1021 30.15 851 25.13 7.1 44.7 79 3.7 38.6
20:10 1021 30.15 851 25.13 7 44.6 79 3.7 38.6
20:15 1021 30.15 851 25.13 6.9 44.4 80 3.7 38.6
20:20 1021 30.15 851 25.13 6.8 44.3 79 3.5 38.3
20:25 1021 30.15 851 25.13 7 44.6 78 3.5 38.2
20:30 1021 30.15 851 25.13 6.9 44.5 79 3.5 38.2
20:35 1021 30.15 851 25.13 6.7 44.1 79 3.4 38.1
20:40 1021 30.15 851 25.13 6.5 43.7 79 3.2 37.8
20:45 1021 30.15 850 25.1 6.6 43.9 79 3.2 37.8
20:50 1021 30.15 851 25.13 6.4 43.6 78 2.9 37.2
20:55 1021 30.15 850 25.1 6.6 43.9 76 2.7 36.9
21:00 1021 30.15 850 25.1 6.3 43.4 80 3.1 37.6
21:05 1021 30.15 850 25.1 5.9 42.6 80 2.6 36.7
21:10 1021 30.15 850 25.1 6.1 43 76 2.2 35.9
21:15 1021 30.15 850 25.1 6.7 44 71 1.8 35.2
21:20 1021 30.15 850 25.1 7.2 45 69 2 35.5
21:25 1021 30.15 850 25.1 6.6 43.8 74 2.2 35.9
21:30 1021 30.15 850 25.1 6.3 43.4 72 1.7 35.1
21:35 1021 30.15 850 25.1 6.2 43.2 69 1 33.8
21:40 1021 30.15 850 25.1 6 42.8 72 1.4 34.5
21:45 1021 30.15 850 25.1 5.7 42.3 70 0.6 33.1
21:50 1021 30.15 850 25.1 6.2 43.1 64 -0 32
21:55 1021 30.15 850 25.1 6.7 44.1 64 0.5 32.8
22:00 1021 30.15 850 25.1 6.3 43.3 66 0.3 32.6
22:05 1021 30.15 850 25.1 6 42.8 66 0.2 32.4
22:10 1021 30.15 850 25.1 5.8 42.5 66 -0 31.9
22:15 1021 30.15 850 25.1 6 42.8 62 -0.7 30.8
22:20 1021 30.15 850 25.1 6.3 43.3 64 0 32.1
22:25 1021 30.15 850 25.1 6 42.8 64 -0.4 31.3
22:30 1020 30.12 850 25.1 6 42.9 60 -1.2 29.9
22:35 1020 30.12 850 25.1 7 44.6 48 -3.1 26.4
22:40 1020 30.12 849 25.07 7.7 45.9 54 -0.9 30.3
22:45 1020 30.12 849 25.07 7.3 45.2 54 -1.3 29.7
22:50 1020 30.12 849 25.07 6.7 44 59 -0.8 30.5
22:55 1020 30.12 850 25.1 6.3 43.3 59 -1.2 29.9
23:00 1020 30.12 850 25.1 6.4 43.5 59 -1.1 30.1
23:05 1020 30.12 850 25.1 6.5 43.8 64 0.2 32.4
23:10 1021 30.15 850 25.1 6.6 43.8 66 0.6 33.1
23:15 1021 30.15 850 25.1 6.7 44.1 64 0.5 32.9
23:20 1021 30.15 850 25.1 6.6 43.9 64 0.3 32.6
23:25 1021 30.15 850 25.1 6.5 43.6 64 0.2 32.4
23:30 1021 30.15 850 25.1 6.2 43.1 64 -0.1 31.8
23:35 1020 30.12 850 25.1 5.8 42.5 62 -0.9 30.5
23:40 1020 30.12 850 25.1 6.1 42.9 60 -1 30.2
23:45 1020 30.12 850 25.1 6.3 43.3 58 -1.4 29.4
23:50 1020 30.12 850 25.1 6.4 43.5 58 -1.3 29.6
23:55 1020 30.12 850 25.1 6.4 43.5 58 -1.4 29.5
24:00 1020 30.12 850 25.1 6.4 43.5 55 -1.9 28.5